sensor_id;sensor_type;location;lat;lon;timestamp;temperature;humidity
63802;DHT22;49949;43.060;25.624;2023-07-28T00:00:48;16.00;99.90
63802;DHT22;49949;43.060;25.624;2023-07-28T00:03:14;15.90;99.90
63802;DHT22;49949;43.060;25.624;2023-07-28T00:05:40;15.80;99.90
63802;DHT22;49949;43.060;25.624;2023-07-28T00:08:05;15.70;99.90
63802;DHT22;49949;43.060;25.624;2023-07-28T00:10:31;15.70;99.90
63802;DHT22;49949;43.060;25.624;2023-07-28T00:12:57;15.70;99.90
63802;DHT22;49949;43.060;25.624;2023-07-28T00:15:23;15.70;99.90
63802;DHT22;49949;43.060;25.624;2023-07-28T00:17:48;15.70;99.90
63802;DHT22;49949;43.060;25.624;2023-07-28T00:20:14;15.50;99.90
63802;DHT22;49949;43.060;25.624;2023-07-28T00:22:40;15.50;99.90
63802;DHT22;49949;43.060;25.624;2023-07-28T00:25:06;15.50;99.90
63802;DHT22;49949;43.060;25.624;2023-07-28T00:27:31;15.40;99.90
63802;DHT22;49949;43.060;25.624;2023-07-28T00:29:57;15.40;99.90
63802;DHT22;49949;43.060;25.624;2023-07-28T00:32:23;15.40;99.90
63802;DHT22;49949;43.060;25.624;2023-07-28T00:34:48;15.30;99.90
63802;DHT22;49949;43.060;25.624;2023-07-28T00:37:14;15.30;99.90
63802;DHT22;49949;43.060;25.624;2023-07-28T00:39:40;15.30;99.90
63802;DHT22;49949;43.060;25.624;2023-07-28T00:42:06;15.20;99.90
63802;DHT22;49949;43.060;25.624;2023-07-28T00:44:31;15.20;99.90
63802;DHT22;49949;43.060;25.624;2023-07-28T00:46:57;15.20;99.90
63802;DHT22;49949;43.060;25.624;2023-07-28T00:49:23;15.20;99.90
63802;DHT22;49949;43.060;25.624;2023-07-28T00:51:49;15.10;99.90
63802;DHT22;49949;43.060;25.624;2023-07-28T00:54:16;15.20;99.90
63802;DHT22;49949;43.060;25.624;2023-07-28T00:56:42;15.20;99.90
63802;DHT22;49949;43.060;25.624;2023-07-28T00:59:08;15.20;99.90
63802;DHT22;49949;43.060;25.624;2023-07-28T01:01:40;15.10;99.90
63802;DHT22;49949;43.060;25.624;2023-07-28T01:04:05;15.00;99.90
63802;DHT22;49949;43.060;25.624;2023-07-28T01:09:24;14.90;99.90
63802;DHT22;49949;43.060;25.624;2023-07-28T01:11:57;14.90;99.90
63802;DHT22;49949;43.060;25.624;2023-07-28T01:14:24;14.80;99.90
63802;DHT22;49949;43.060;25.624;2023-07-28T01:16:50;14.70;99.90
63802;DHT22;49949;43.060;25.624;2023-07-28T01:19:21;14.70;99.90
63802;DHT22;49949;43.060;25.624;2023-07-28T01:22:07;14.60;99.90
63802;DHT22;49949;43.060;25.624;2023-07-28T01:24:49;14.60;99.90
63802;DHT22;49949;43.060;25.624;2023-07-28T01:27:16;14.50;99.90
63802;DHT22;49949;43.060;25.624;2023-07-28T01:29:43;14.50;99.90
63802;DHT22;49949;43.060;25.624;2023-07-28T01:32:11;14.50;99.90
63802;DHT22;49949;43.060;25.624;2023-07-28T01:34:37;14.40;99.90
63802;DHT22;49949;43.060;25.624;2023-07-28T01:37:02;14.30;99.90
63802;DHT22;49949;43.060;25.624;2023-07-28T01:39:28;14.30;99.90
63802;DHT22;49949;43.060;25.624;2023-07-28T01:41:54;14.40;99.90
63802;DHT22;49949;43.060;25.624;2023-07-28T01:44:19;14.30;99.90
63802;DHT22;49949;43.060;25.624;2023-07-28T01:46:45;14.30;99.90
63802;DHT22;49949;43.060;25.624;2023-07-28T01:49:11;14.30;99.90
63802;DHT22;49949;43.060;25.624;2023-07-28T01:51:36;14.30;99.90
63802;DHT22;49949;43.060;25.624;2023-07-28T01:54:02;14.30;99.90
63802;DHT22;49949;43.060;25.624;2023-07-28T01:56:28;14.20;99.90
63802;DHT22;49949;43.060;25.624;2023-07-28T01:58:54;14.20;99.90
63802;DHT22;49949;43.060;25.624;2023-07-28T02:01:19;14.20;99.90
63802;DHT22;49949;43.060;25.624;2023-07-28T02:03:45;14.10;99.90
63802;DHT22;49949;43.060;25.624;2023-07-28T02:06:10;14.10;99.90
63802;DHT22;49949;43.060;25.624;2023-07-28T02:08:36;14.10;99.90
63802;DHT22;49949;43.060;25.624;2023-07-28T02:11:02;14.10;99.90
63802;DHT22;49949;43.060;25.624;2023-07-28T02:13:28;14.10;99.90
63802;DHT22;49949;43.060;25.624;2023-07-28T02:15:53;14.10;99.90
63802;DHT22;49949;43.060;25.624;2023-07-28T02:18:19;14.10;99.90
63802;DHT22;49949;43.060;25.624;2023-07-28T02:20:48;14.00;99.90
63802;DHT22;49949;43.060;25.624;2023-07-28T02:23:14;14.00;99.90
63802;DHT22;49949;43.060;25.624;2023-07-28T02:25:40;13.90;99.90
63802;DHT22;49949;43.060;25.624;2023-07-28T02:28:08;14.00;99.90
63802;DHT22;49949;43.060;25.624;2023-07-28T02:30:34;13.90;99.90
63802;DHT22;49949;43.060;25.624;2023-07-28T02:32:59;14.00;99.90
63802;DHT22;49949;43.060;25.624;2023-07-28T02:35:25;13.90;99.90
63802;DHT22;49949;43.060;25.624;2023-07-28T02:37:51;13.80;99.90
63802;DHT22;49949;43.060;25.624;2023-07-28T02:40:16;13.80;99.90
63802;DHT22;49949;43.060;25.624;2023-07-28T02:42:42;13.80;99.90
63802;DHT22;49949;43.060;25.624;2023-07-28T02:45:08;13.80;99.90
63802;DHT22;49949;43.060;25.624;2023-07-28T02:47:35;13.80;99.90
63802;DHT22;49949;43.060;25.624;2023-07-28T02:50:01;13.80;99.90
63802;DHT22;49949;43.060;25.624;2023-07-28T02:52:27;13.70;99.90
63802;DHT22;49949;43.060;25.624;2023-07-28T02:54:53;13.60;99.90
63802;DHT22;49949;43.060;25.624;2023-07-28T02:57:19;13.60;99.90
63802;DHT22;49949;43.060;25.624;2023-07-28T02:59:45;13.60;99.90
63802;DHT22;49949;43.060;25.624;2023-07-28T03:02:11;13.60;99.90
63802;DHT22;49949;43.060;25.624;2023-07-28T03:04:37;13.60;99.90
63802;DHT22;49949;43.060;25.624;2023-07-28T03:07:02;13.50;99.90
63802;DHT22;49949;43.060;25.624;2023-07-28T03:09:28;13.50;99.90
63802;DHT22;49949;43.060;25.624;2023-07-28T03:11:54;13.50;99.90
63802;DHT22;49949;43.060;25.624;2023-07-28T03:14:20;13.50;99.90
63802;DHT22;49949;43.060;25.624;2023-07-28T03:16:46;13.50;99.90
63802;DHT22;49949;43.060;25.624;2023-07-28T03:19:11;13.40;99.90
63802;DHT22;49949;43.060;25.624;2023-07-28T03:21:37;13.40;99.90
63802;DHT22;49949;43.060;25.624;2023-07-28T03:24:09;13.40;99.90
63802;DHT22;49949;43.060;25.624;2023-07-28T03:26:35;13.40;99.90
63802;DHT22;49949;43.060;25.624;2023-07-28T03:29:00;13.50;99.90
63802;DHT22;49949;43.060;25.624;2023-07-28T03:31:26;13.50;99.90
63802;DHT22;49949;43.060;25.624;2023-07-28T03:33:52;13.40;99.90
63802;DHT22;49949;43.060;25.624;2023-07-28T03:36:17;13.40;99.90
63802;DHT22;49949;43.060;25.624;2023-07-28T03:38:44;13.40;99.90
63802;DHT22;49949;43.060;25.624;2023-07-28T03:41:10;13.40;99.90
63802;DHT22;49949;43.060;25.624;2023-07-28T03:43:36;13.60;99.90
63802;DHT22;49949;43.060;25.624;2023-07-28T03:46:02;14.20;99.90
63802;DHT22;49949;43.060;25.624;2023-07-28T03:48:28;14.90;99.90
63802;DHT22;49949;43.060;25.624;2023-07-28T03:50:53;15.30;99.90
63802;DHT22;49949;43.060;25.624;2023-07-28T03:53:19;15.70;99.90
63802;DHT22;49949;43.060;25.624;2023-07-28T03:55:45;15.90;99.90
63802;DHT22;49949;43.060;25.624;2023-07-28T03:58:10;16.20;99.90
63802;DHT22;49949;43.060;25.624;2023-07-28T04:00:36;16.40;99.90
63802;DHT22;49949;43.060;25.624;2023-07-28T04:03:02;16.80;99.90
63802;DHT22;49949;43.060;25.624;2023-07-28T04:05:27;16.90;99.90
63802;DHT22;49949;43.060;25.624;2023-07-28T04:07:53;17.10;99.90
63802;DHT22;49949;43.060;25.624;2023-07-28T04:10:19;17.30;99.90
63802;DHT22;49949;43.060;25.624;2023-07-28T04:12:44;17.50;99.90
63802;DHT22;49949;43.060;25.624;2023-07-28T04:15:10;18.00;99.90
63802;DHT22;49949;43.060;25.624;2023-07-28T04:17:36;18.60;99.90
63802;DHT22;49949;43.060;25.624;2023-07-28T04:20:01;18.90;99.90
63802;DHT22;49949;43.060;25.624;2023-07-28T04:22:27;19.00;99.90
63802;DHT22;49949;43.060;25.624;2023-07-28T04:24:53;19.10;99.90
63802;DHT22;49949;43.060;25.624;2023-07-28T04:27:19;19.60;98.50
63802;DHT22;49949;43.060;25.624;2023-07-28T04:29:45;19.90;96.50
63802;DHT22;49949;43.060;25.624;2023-07-28T04:32:11;20.00;96.00
63802;DHT22;49949;43.060;25.624;2023-07-28T04:34:36;20.40;93.70
63802;DHT22;49949;43.060;25.624;2023-07-28T04:37:02;20.70;93.10
63802;DHT22;49949;43.060;25.624;2023-07-28T04:39:28;21.20;90.60
63802;DHT22;49949;43.060;25.624;2023-07-28T04:41:54;21.50;88.90
63802;DHT22;49949;43.060;25.624;2023-07-28T04:44:19;21.90;87.60
63802;DHT22;49949;43.060;25.624;2023-07-28T04:46:45;22.20;86.10
63802;DHT22;49949;43.060;25.624;2023-07-28T04:49:14;22.70;84.30
63802;DHT22;49949;43.060;25.624;2023-07-28T04:51:39;23.10;82.50
63802;DHT22;49949;43.060;25.624;2023-07-28T04:54:05;23.50;80.90
63802;DHT22;49949;43.060;25.624;2023-07-28T04:56:31;23.50;80.00
63802;DHT22;49949;43.060;25.624;2023-07-28T04:58:56;23.70;79.80
63802;DHT22;49949;43.060;25.624;2023-07-28T05:01:24;23.90;78.80
63802;DHT22;49949;43.060;25.624;2023-07-28T05:03:50;24.10;77.90
63802;DHT22;49949;43.060;25.624;2023-07-28T05:06:15;24.50;76.70
63802;DHT22;49949;43.060;25.624;2023-07-28T05:08:41;25.00;75.10
63802;DHT22;49949;43.060;25.624;2023-07-28T05:11:07;25.30;73.90
63802;DHT22;49949;43.060;25.624;2023-07-28T05:13:33;25.60;72.00
63802;DHT22;49949;43.060;25.624;2023-07-28T05:15:58;25.70;71.10
63802;DHT22;49949;43.060;25.624;2023-07-28T05:18:25;25.60;70.80
63802;DHT22;49949;43.060;25.624;2023-07-28T05:20:51;25.80;70.70
63802;DHT22;49949;43.060;25.624;2023-07-28T05:23:16;25.80;70.00
63802;DHT22;49949;43.060;25.624;2023-07-28T05:25:42;25.80;69.00
63802;DHT22;49949;43.060;25.624;2023-07-28T05:28:08;25.60;70.30
63802;DHT22;49949;43.060;25.624;2023-07-28T05:30:34;25.50;69.00
63802;DHT22;49949;43.060;25.624;2023-07-28T05:32:59;25.60;70.20
63802;DHT22;49949;43.060;25.624;2023-07-28T05:35:25;24.80;70.00
63802;DHT22;49949;43.060;25.624;2023-07-28T05:37:51;24.40;71.70
63802;DHT22;49949;43.060;25.624;2023-07-28T05:40:16;24.40;71.80
63802;DHT22;49949;43.060;25.624;2023-07-28T05:42:42;24.40;70.70
63802;DHT22;49949;43.060;25.624;2023-07-28T05:45:08;24.50;71.70
63802;DHT22;49949;43.060;25.624;2023-07-28T05:47:34;24.20;72.70
63802;DHT22;49949;43.060;25.624;2023-07-28T05:50:00;24.10;70.90
63802;DHT22;49949;43.060;25.624;2023-07-28T05:52:26;24.20;71.10
63802;DHT22;49949;43.060;25.624;2023-07-28T05:54:52;24.30;69.70
63802;DHT22;49949;43.060;25.624;2023-07-28T05:57:17;24.60;68.00
63802;DHT22;49949;43.060;25.624;2023-07-28T05:59:43;24.90;67.90
63802;DHT22;49949;43.060;25.624;2023-07-28T06:02:09;25.10;68.60
63802;DHT22;49949;43.060;25.624;2023-07-28T06:04:34;25.30;67.20
63802;DHT22;49949;43.060;25.624;2023-07-28T06:07:00;25.30;67.00
63802;DHT22;49949;43.060;25.624;2023-07-28T06:09:26;25.30;67.40
63802;DHT22;49949;43.060;25.624;2023-07-28T06:11:52;25.50;67.80
63802;DHT22;49949;43.060;25.624;2023-07-28T06:14:18;25.60;67.20
63802;DHT22;49949;43.060;25.624;2023-07-28T06:16:44;25.60;67.60
63802;DHT22;49949;43.060;25.624;2023-07-28T06:19:10;25.80;66.00
63802;DHT22;49949;43.060;25.624;2023-07-28T06:21:35;25.80;66.80
63802;DHT22;49949;43.060;25.624;2023-07-28T06:24:01;25.80;66.00
63802;DHT22;49949;43.060;25.624;2023-07-28T06:26:27;25.70;67.10
63802;DHT22;49949;43.060;25.624;2023-07-28T06:28:52;25.90;65.80
63802;DHT22;49949;43.060;25.624;2023-07-28T06:31:18;26.10;65.70
63802;DHT22;49949;43.060;25.624;2023-07-28T06:33:44;26.20;64.80
63802;DHT22;49949;43.060;25.624;2023-07-28T06:36:09;26.40;65.10
63802;DHT22;49949;43.060;25.624;2023-07-28T06:38:35;26.60;64.10
63802;DHT22;49949;43.060;25.624;2023-07-28T06:41:01;26.70;64.10
63802;DHT22;49949;43.060;25.624;2023-07-28T06:43:27;26.90;62.30
63802;DHT22;49949;43.060;25.624;2023-07-28T06:45:53;27.00;62.00
63802;DHT22;49949;43.060;25.624;2023-07-28T06:48:19;27.10;61.30
63802;DHT22;49949;43.060;25.624;2023-07-28T06:50:45;27.20;60.00
63802;DHT22;49949;43.060;25.624;2023-07-28T06:53:11;27.00;61.10
63802;DHT22;49949;43.060;25.624;2023-07-28T06:55:36;26.90;61.00
63802;DHT22;49949;43.060;25.624;2023-07-28T06:58:07;26.80;63.20
63802;DHT22;49949;43.060;25.624;2023-07-28T07:00:33;26.80;62.30
63802;DHT22;49949;43.060;25.624;2023-07-28T07:02:59;26.70;61.90
63802;DHT22;49949;43.060;25.624;2023-07-28T07:05:24;26.60;61.30
63802;DHT22;49949;43.060;25.624;2023-07-28T07:07:50;26.50;62.00
63802;DHT22;49949;43.060;25.624;2023-07-28T07:10:16;26.40;62.50
63802;DHT22;49949;43.060;25.624;2023-07-28T07:12:42;26.30;62.10
63802;DHT22;49949;43.060;25.624;2023-07-28T07:15:08;26.40;62.50
63802;DHT22;49949;43.060;25.624;2023-07-28T07:17:34;26.50;62.90
63802;DHT22;49949;43.060;25.624;2023-07-28T07:19:59;26.40;61.70
63802;DHT22;49949;43.060;25.624;2023-07-28T07:22:25;26.00;62.30
63802;DHT22;49949;43.060;25.624;2023-07-28T07:24:51;25.60;64.50
63802;DHT22;49949;43.060;25.624;2023-07-28T07:27:16;25.80;65.20
63802;DHT22;49949;43.060;25.624;2023-07-28T07:29:42;26.10;63.60
63802;DHT22;49949;43.060;25.624;2023-07-28T07:32:08;26.00;64.30
63802;DHT22;49949;43.060;25.624;2023-07-28T07:34:35;26.10;64.50
63802;DHT22;49949;43.060;25.624;2023-07-28T07:37:03;26.50;63.40
63802;DHT22;49949;43.060;25.624;2023-07-28T07:39:28;26.60;62.00
63802;DHT22;49949;43.060;25.624;2023-07-28T07:41:54;26.30;62.30
63802;DHT22;49949;43.060;25.624;2023-07-28T07:44:20;26.10;62.70
63802;DHT22;49949;43.060;25.624;2023-07-28T07:46:46;26.00;64.00
63802;DHT22;49949;43.060;25.624;2023-07-28T07:49:11;26.10;64.60
63802;DHT22;49949;43.060;25.624;2023-07-28T07:51:40;26.00;62.40
63802;DHT22;49949;43.060;25.624;2023-07-28T07:54:06;25.80;62.80
63802;DHT22;49949;43.060;25.624;2023-07-28T07:56:31;25.70;63.90
63802;DHT22;49949;43.060;25.624;2023-07-28T07:58:57;25.80;63.40
63802;DHT22;49949;43.060;25.624;2023-07-28T08:01:23;26.10;62.30
63802;DHT22;49949;43.060;25.624;2023-07-28T08:03:48;26.00;61.10
63802;DHT22;49949;43.060;25.624;2023-07-28T08:06:14;26.10;61.80
63802;DHT22;49949;43.060;25.624;2023-07-28T08:08:40;26.20;60.50
63802;DHT22;49949;43.060;25.624;2023-07-28T08:11:06;26.20;61.60
63802;DHT22;49949;43.060;25.624;2023-07-28T08:13:33;26.20;59.80
63802;DHT22;49949;43.060;25.624;2023-07-28T08:15:58;26.10;60.60
63802;DHT22;49949;43.060;25.624;2023-07-28T08:18:24;25.80;60.10
63802;DHT22;49949;43.060;25.624;2023-07-28T08:20:50;26.20;60.00
63802;DHT22;49949;43.060;25.624;2023-07-28T08:23:15;26.40;58.70
63802;DHT22;49949;43.060;25.624;2023-07-28T08:25:41;26.70;58.50
63802;DHT22;49949;43.060;25.624;2023-07-28T08:28:07;27.00;55.20
63802;DHT22;49949;43.060;25.624;2023-07-28T08:30:33;27.30;52.30
63802;DHT22;49949;43.060;25.624;2023-07-28T08:32:59;27.80;50.70
63802;DHT22;49949;43.060;25.624;2023-07-28T08:35:24;27.90;51.80
63802;DHT22;49949;43.060;25.624;2023-07-28T08:37:50;27.90;51.30
63802;DHT22;49949;43.060;25.624;2023-07-28T08:40:16;27.80;52.80
63802;DHT22;49949;43.060;25.624;2023-07-28T08:42:42;28.00;53.20
63802;DHT22;49949;43.060;25.624;2023-07-28T08:45:09;28.20;53.20
63802;DHT22;49949;43.060;25.624;2023-07-28T08:47:36;28.40;52.80
63802;DHT22;49949;43.060;25.624;2023-07-28T08:50:03;28.40;51.90
63802;DHT22;49949;43.060;25.624;2023-07-28T08:52:29;28.10;52.60
63802;DHT22;49949;43.060;25.624;2023-07-28T08:54:54;28.10;51.80
63802;DHT22;49949;43.060;25.624;2023-07-28T08:57:20;28.00;52.50
63802;DHT22;49949;43.060;25.624;2023-07-28T08:59:46;28.20;52.10
63802;DHT22;49949;43.060;25.624;2023-07-28T09:02:17;28.20;51.90
63802;DHT22;49949;43.060;25.624;2023-07-28T09:04:44;28.60;51.20
63802;DHT22;49949;43.060;25.624;2023-07-28T09:07:09;28.90;49.30
63802;DHT22;49949;43.060;25.624;2023-07-28T09:09:35;29.00;48.70
63802;DHT22;49949;43.060;25.624;2023-07-28T09:12:03;29.00;49.90
63802;DHT22;49949;43.060;25.624;2023-07-28T09:14:30;29.30;49.30
63802;DHT22;49949;43.060;25.624;2023-07-28T09:17:18;29.50;49.00
63802;DHT22;49949;43.060;25.624;2023-07-28T09:19:53;29.70;49.10
63802;DHT22;49949;43.060;25.624;2023-07-28T09:22:20;29.40;47.40
63802;DHT22;49949;43.060;25.624;2023-07-28T09:24:46;29.50;47.90
63802;DHT22;49949;43.060;25.624;2023-07-28T09:27:25;29.80;48.30
63802;DHT22;49949;43.060;25.624;2023-07-28T09:29:52;30.00;47.40
63802;DHT22;49949;43.060;25.624;2023-07-28T09:32:31;30.40;46.90
63802;DHT22;49949;43.060;25.624;2023-07-28T09:35:09;30.60;45.00
63802;DHT22;49949;43.060;25.624;2023-07-28T09:37:45;29.90;44.40
63802;DHT22;49949;43.060;25.624;2023-07-28T09:40:12;29.90;44.40
63802;DHT22;49949;43.060;25.624;2023-07-28T09:42:39;29.80;44.20
63802;DHT22;49949;43.060;25.624;2023-07-28T09:45:06;29.70;45.60
63802;DHT22;49949;43.060;25.624;2023-07-28T09:47:34;29.40;47.00
63802;DHT22;49949;43.060;25.624;2023-07-28T09:50:03;29.50;48.20
63802;DHT22;49949;43.060;25.624;2023-07-28T09:52:34;30.10;47.20
63802;DHT22;49949;43.060;25.624;2023-07-28T09:55:06;29.90;45.70
63802;DHT22;49949;43.060;25.624;2023-07-28T09:57:36;29.70;46.90
63802;DHT22;49949;43.060;25.624;2023-07-28T10:00:03;29.80;46.40
63802;DHT22;49949;43.060;25.624;2023-07-28T10:02:30;29.70;45.70
63802;DHT22;49949;43.060;25.624;2023-07-28T10:04:56;29.50;46.20
63802;DHT22;49949;43.060;25.624;2023-07-28T10:07:24;29.80;47.20
63802;DHT22;49949;43.060;25.624;2023-07-28T10:09:49;30.20;48.20
63802;DHT22;49949;43.060;25.624;2023-07-28T10:12:24;30.50;47.20
63802;DHT22;49949;43.060;25.624;2023-07-28T10:15:01;30.70;46.00
63802;DHT22;49949;43.060;25.624;2023-07-28T10:17:34;30.70;45.70
63802;DHT22;49949;43.060;25.624;2023-07-28T10:20:05;30.40;44.60
63802;DHT22;49949;43.060;25.624;2023-07-28T10:22:43;29.90;45.90
63802;DHT22;49949;43.060;25.624;2023-07-28T10:25:10;29.10;47.90
63802;DHT22;49949;43.060;25.624;2023-07-28T10:30:03;29.00;47.80
63802;DHT22;49949;43.060;25.624;2023-07-28T10:32:40;29.20;47.10
63802;DHT22;49949;43.060;25.624;2023-07-28T10:35:30;29.30;44.90
63802;DHT22;49949;43.060;25.624;2023-07-28T10:38:31;29.10;45.90
63802;DHT22;49949;43.060;25.624;2023-07-28T10:41:08;28.90;46.90
63802;DHT22;49949;43.060;25.624;2023-07-28T10:43:35;28.80;46.70
63802;DHT22;49949;43.060;25.624;2023-07-28T10:46:01;28.60;47.20
63802;DHT22;49949;43.060;25.624;2023-07-28T10:48:27;28.70;46.20
63802;DHT22;49949;43.060;25.624;2023-07-28T10:50:52;28.60;45.90
63802;DHT22;49949;43.060;25.624;2023-07-28T10:53:21;28.60;46.50
63802;DHT22;49949;43.060;25.624;2023-07-28T10:55:47;28.60;47.20
63802;DHT22;49949;43.060;25.624;2023-07-28T10:58:13;28.80;45.20
63802;DHT22;49949;43.060;25.624;2023-07-28T11:00:39;28.80;44.20
63802;DHT22;49949;43.060;25.624;2023-07-28T11:03:08;28.60;46.00
63802;DHT22;49949;43.060;25.624;2023-07-28T11:05:35;28.90;45.70
63802;DHT22;49949;43.060;25.624;2023-07-28T11:08:01;29.30;44.90
63802;DHT22;49949;43.060;25.624;2023-07-28T11:10:31;29.70;43.00
63802;DHT22;49949;43.060;25.624;2023-07-28T11:12:59;29.90;42.50
63802;DHT22;49949;43.060;25.624;2023-07-28T11:15:26;29.60;42.90
63802;DHT22;49949;43.060;25.624;2023-07-28T11:17:52;29.70;44.00
63802;DHT22;49949;43.060;25.624;2023-07-28T11:20:22;29.60;43.70
63802;DHT22;49949;43.060;25.624;2023-07-28T11:22:59;29.40;44.90
63802;DHT22;49949;43.060;25.624;2023-07-28T11:25:26;29.30;44.50
63802;DHT22;49949;43.060;25.624;2023-07-28T11:27:52;29.20;44.00
63802;DHT22;49949;43.060;25.624;2023-07-28T11:30:19;29.30;44.70
63802;DHT22;49949;43.060;25.624;2023-07-28T11:32:47;29.50;44.00
63802;DHT22;49949;43.060;25.624;2023-07-28T11:35:14;29.90;43.50
63802;DHT22;49949;43.060;25.624;2023-07-28T11:37:42;29.80;41.90
63802;DHT22;49949;43.060;25.624;2023-07-28T11:40:09;29.70;41.60
63802;DHT22;49949;43.060;25.624;2023-07-28T11:42:45;29.30;42.70
63802;DHT22;49949;43.060;25.624;2023-07-28T11:45:16;29.40;43.00
63802;DHT22;49949;43.060;25.624;2023-07-28T11:48:02;29.90;40.70
63802;DHT22;49949;43.060;25.624;2023-07-28T11:50:31;30.10;40.80
63802;DHT22;49949;43.060;25.624;2023-07-28T11:52:59;30.30;40.70
63802;DHT22;49949;43.060;25.624;2023-07-28T11:55:25;30.20;40.20
63802;DHT22;49949;43.060;25.624;2023-07-28T11:57:52;30.40;39.90
63802;DHT22;49949;43.060;25.624;2023-07-28T12:00:18;30.70;39.70
63802;DHT22;49949;43.060;25.624;2023-07-28T12:03:06;31.00;39.20
63802;DHT22;49949;43.060;25.624;2023-07-28T12:05:35;31.30;38.20
63802;DHT22;49949;43.060;25.624;2023-07-28T12:08:02;31.00;39.10
63802;DHT22;49949;43.060;25.624;2023-07-28T12:10:31;30.80;39.10
63802;DHT22;49949;43.060;25.624;2023-07-28T12:12:57;30.70;39.40
63802;DHT22;49949;43.060;25.624;2023-07-28T12:15:29;30.50;37.60
63802;DHT22;49949;43.060;25.624;2023-07-28T12:18:10;30.40;38.20
63802;DHT22;49949;43.060;25.624;2023-07-28T12:20:40;30.30;39.00
63802;DHT22;49949;43.060;25.624;2023-07-28T12:23:08;30.10;39.60
63802;DHT22;49949;43.060;25.624;2023-07-28T12:25:36;30.10;38.60
63802;DHT22;49949;43.060;25.624;2023-07-28T12:28:02;30.00;39.30
63802;DHT22;49949;43.060;25.624;2023-07-28T12:30:28;30.30;39.50
63802;DHT22;49949;43.060;25.624;2023-07-28T12:32:54;30.40;38.40
63802;DHT22;49949;43.060;25.624;2023-07-28T12:35:20;30.50;37.90
63802;DHT22;49949;43.060;25.624;2023-07-28T12:37:49;30.40;37.80
63802;DHT22;49949;43.060;25.624;2023-07-28T12:40:15;30.40;37.40
63802;DHT22;49949;43.060;25.624;2023-07-28T12:42:41;30.20;38.10
63802;DHT22;49949;43.060;25.624;2023-07-28T12:45:07;30.20;38.60
63802;DHT22;49949;43.060;25.624;2023-07-28T12:47:33;30.30;38.20
63802;DHT22;49949;43.060;25.624;2023-07-28T12:49:59;30.20;38.70
63802;DHT22;49949;43.060;25.624;2023-07-28T12:52:24;30.50;37.50
63802;DHT22;49949;43.060;25.624;2023-07-28T12:54:51;30.80;35.80
63802;DHT22;49949;43.060;25.624;2023-07-28T12:57:16;30.70;35.80
63802;DHT22;49949;43.060;25.624;2023-07-28T12:59:42;30.80;35.80
63802;DHT22;49949;43.060;25.624;2023-07-28T13:02:07;30.90;35.70
63802;DHT22;49949;43.060;25.624;2023-07-28T13:04:33;31.00;36.10
63802;DHT22;49949;43.060;25.624;2023-07-28T13:06:59;30.60;35.90
63802;DHT22;49949;43.060;25.624;2023-07-28T13:09:24;30.40;36.70
63802;DHT22;49949;43.060;25.624;2023-07-28T13:11:50;30.60;37.10
63802;DHT22;49949;43.060;25.624;2023-07-28T13:14:16;31.00;36.20
63802;DHT22;49949;43.060;25.624;2023-07-28T13:16:41;31.30;35.10
63802;DHT22;49949;43.060;25.624;2023-07-28T13:19:07;31.50;33.90
63802;DHT22;49949;43.060;25.624;2023-07-28T13:21:33;31.60;33.90
63802;DHT22;49949;43.060;25.624;2023-07-28T13:23:59;31.70;34.10
63802;DHT22;49949;43.060;25.624;2023-07-28T13:26:25;31.70;34.10
63802;DHT22;49949;43.060;25.624;2023-07-28T13:28:51;31.90;34.00
63802;DHT22;49949;43.060;25.624;2023-07-28T13:31:17;31.80;34.30
63802;DHT22;49949;43.060;25.624;2023-07-28T13:33:43;31.70;34.40
63802;DHT22;49949;43.060;25.624;2023-07-28T13:36:10;31.70;35.30
63802;DHT22;49949;43.060;25.624;2023-07-28T13:38:35;31.80;35.90
63802;DHT22;49949;43.060;25.624;2023-07-28T13:41:04;31.40;35.40
63802;DHT22;49949;43.060;25.624;2023-07-28T13:43:31;31.20;36.10
63802;DHT22;49949;43.060;25.624;2023-07-28T13:45:57;31.00;37.20
63802;DHT22;49949;43.060;25.624;2023-07-28T13:48:23;30.70;37.60
63802;DHT22;49949;43.060;25.624;2023-07-28T13:50:49;30.70;38.60
63802;DHT22;49949;43.060;25.624;2023-07-28T13:53:15;30.70;38.50
63802;DHT22;49949;43.060;25.624;2023-07-28T13:55:41;30.90;38.40
63802;DHT22;49949;43.060;25.624;2023-07-28T13:58:06;31.00;39.00
63802;DHT22;49949;43.060;25.624;2023-07-28T14:00:32;31.30;38.60
63802;DHT22;49949;43.060;25.624;2023-07-28T14:02:58;31.20;38.20
63802;DHT22;49949;43.060;25.624;2023-07-28T14:05:24;31.00;38.80
63802;DHT22;49949;43.060;25.624;2023-07-28T14:07:49;30.80;38.40
63802;DHT22;49949;43.060;25.624;2023-07-28T14:10:15;30.90;37.60
63802;DHT22;49949;43.060;25.624;2023-07-28T14:12:40;31.00;39.90
63802;DHT22;49949;43.060;25.624;2023-07-28T14:15:07;31.00;39.30
63802;DHT22;49949;43.060;25.624;2023-07-28T14:17:33;30.50;38.90
63802;DHT22;49949;43.060;25.624;2023-07-28T14:19:59;30.40;38.70
63802;DHT22;49949;43.060;25.624;2023-07-28T14:22:25;30.30;39.10
63802;DHT22;49949;43.060;25.624;2023-07-28T14:24:50;30.30;39.90
63802;DHT22;49949;43.060;25.624;2023-07-28T14:27:16;30.20;39.10
63802;DHT22;49949;43.060;25.624;2023-07-28T14:29:42;30.10;40.00
63802;DHT22;49949;43.060;25.624;2023-07-28T14:32:08;30.00;39.90
63802;DHT22;49949;43.060;25.624;2023-07-28T14:34:34;30.00;40.50
63802;DHT22;49949;43.060;25.624;2023-07-28T14:37:06;30.10;40.30
63802;DHT22;49949;43.060;25.624;2023-07-28T14:39:31;30.30;40.40
63802;DHT22;49949;43.060;25.624;2023-07-28T14:41:57;30.60;39.70
63802;DHT22;49949;43.060;25.624;2023-07-28T14:44:23;30.70;39.20
63802;DHT22;49949;43.060;25.624;2023-07-28T14:46:48;30.80;39.40
63802;DHT22;49949;43.060;25.624;2023-07-28T14:49:14;30.90;40.10
63802;DHT22;49949;43.060;25.624;2023-07-28T14:51:40;31.10;40.70
63802;DHT22;49949;43.060;25.624;2023-07-28T14:54:05;31.30;38.70
63802;DHT22;49949;43.060;25.624;2023-07-28T14:56:31;31.30;37.90
63802;DHT22;49949;43.060;25.624;2023-07-28T14:58:58;31.20;38.70
63802;DHT22;49949;43.060;25.624;2023-07-28T15:01:26;31.30;38.80
63802;DHT22;49949;43.060;25.624;2023-07-28T15:03:52;31.50;38.10
63802;DHT22;49949;43.060;25.624;2023-07-28T15:06:18;31.60;37.60
63802;DHT22;49949;43.060;25.624;2023-07-28T15:08:44;31.70;37.80
63802;DHT22;49949;43.060;25.624;2023-07-28T15:11:09;31.70;36.90
63802;DHT22;49949;43.060;25.624;2023-07-28T15:13:35;31.90;38.50
63802;DHT22;49949;43.060;25.624;2023-07-28T15:16:01;31.90;38.00
63802;DHT22;49949;43.060;25.624;2023-07-28T15:18:26;31.60;37.50